KCQX

Chatham Municipal Airport

Chatham, Massachusetts, USA
METAR KCQX 201505Z AUTO 22011G21KT 1/2SM FG VV002 08/08 A3031 RMK AO2 T00780078 TSNO
Observed Flight Rules
Feb-20 @ 15:05 UTC (5 hours ago) Instrument Flight Rules
Wind Visibility Clouds Conditions
220° at 11 knots
 Gusting to 21 knots
1/2 miles
  • Vertical visibility at 200' AGL
  • Fog
Temperatures Readings
Current 8°C / 46°F
Dewpoint 8°C / 46°F
Humidity 100%
Altimeter 30.31" Hg
Pressure 1026 hPa
Elevation 19
METAR KCQX 201505Z AUTO 22011G21KT 1/2SM FG VV002 08/08 A3031 RMK AO2 T00780078 TSNO
Observed Flight Rules
Feb-20 @ 15:05 UTC
(5 hours ago)
LIFR
Wind Visibility
220° at 11 knots
 Gusting to 21 knots
1/2 miles
Clouds
  • Vertical visibility at 200' AGL
Conditions
  • Fog
Temperature Dewpoint
8°C / 46°F 8°C / 46°F
Humidity Altimeter Pressure
100% 30.31" Hg 1026 hPa